Time;durP1;ratioP1;P1;durP2;ratioP2;P2;SDS_P1;SDS_P2;PMS_P1;PMS_P2;Temp;Humidity;BMP_temperature;BMP_pressure;BME280_temperature;BME280_humidity;BME280_pressure;Samples;Min_cycle;Max_cycle;Signal;HPM_P1;HPM_P2
2021/03/14 00:00:59;;;;;;;36.00;25.40;;;256.50;2022.40;;;;;;5094837;28;20028;-73
2021/03/14 00:03:28;;;;;;;38.85;25.52;;;256.50;2022.40;;;;;;5096380;28;20079;-73
2021/03/14 00:05:54;;;;;;;34.72;25.20;;;256.50;2022.40;;;;;;5095346;28;20423;-73
2021/03/14 00:08:25;;;;;;;39.78;25.45;;;256.50;2022.40;;;;;;5096823;28;20146;-73
2021/03/14 00:11:03;;;;;;;34.78;24.20;;;256.50;2022.40;;;;;;5095536;28;20016;-73
2021/03/14 00:13:32;;;;;;;41.03;25.35;;;256.50;1996.80;;;;;;5096579;28;20107;-73
2021/03/14 00:16:01;;;;;;;40.73;26.10;;;256.40;1996.80;;;;;;5095477;28;20044;-73
2021/03/14 00:18:32;;;;;;;37.20;23.92;;;256.40;2022.40;;;;;;5095106;28;20036;-73
2021/03/14 00:20:58;;;;;;;32.30;23.75;;;256.30;1996.80;;;;;;5094934;28;20085;-73
2021/03/14 00:23:24;;;;;;;36.45;24.95;;;256.30;1996.80;;;;;;5096350;28;20468;-73
2021/03/14 00:25:50;;;;;;;35.17;24.67;;;256.30;1996.80;;;;;;5094978;28;20181;-73
2021/03/14 00:28:18;;;;;;;35.20;23.67;;;256.30;1996.80;;;;;;5096306;28;20523;-73
2021/03/14 00:30:45;;;;;;;35.45;24.55;;;256.20;2022.40;;;;;;5096368;28;20012;-73
2021/03/14 00:33:11;;;;;;;34.67;24.60;;;256.20;2022.40;;;;;;5094530;28;20036;-73
2021/03/14 00:35:37;;;;;;;40.50;22.38;;;256.10;2022.40;;;;;;5096141;28;20365;-73
2021/03/14 00:38:03;;;;;;;35.78;21.23;;;256.10;2022.40;;;;;;5096097;28;20070;-73
2021/03/14 00:40:28;;;;;;;28.85;21.50;;;256.10;2022.40;;;;;;5094771;28;20031;-73
2021/03/14 00:42:57;;;;;;;31.92;20.85;;;256.20;2022.40;;;;;;5095727;28;20488;-73
2021/03/14 00:45:23;;;;;;;31.38;21.58;;;256.20;1996.80;;;;;;5096017;28;20019;-73
2021/03/14 00:47:49;;;;;;;29.38;20.10;;;256.20;1996.80;;;;;;5095753;28;20099;-73
2021/03/14 00:50:15;;;;;;;31.15;21.27;;;256.30;1996.80;;;;;;5095303;28;20027;-73
2021/03/14 00:52:41;;;;;;;34.78;22.90;;;256.20;1996.80;;;;;;5095917;28;20032;-73
2021/03/14 00:55:07;;;;;;;30.15;20.30;;;256.20;1996.80;;;;;;5094338;28;20024;-73
2021/03/14 00:57:32;;;;;;;32.35;21.13;;;256.20;1996.80;;;;;;5095599;28;20119;-73
2021/03/14 00:59:58;;;;;;;28.85;20.48;;;256.20;1996.80;;;;;;5095526;28;20095;-73
2021/03/14 01:02:24;;;;;;;30.90;20.20;;;256.10;1996.80;;;;;;5093738;28;20468;-73
2021/03/14 01:04:50;;;;;;;30.33;19.85;;;256.00;1996.80;;;;;;5094815;28;20028;-73
2021/03/14 01:07:16;;;;;;;28.02;20.25;;;256.00;1996.80;;;;;;5093822;28;20056;-73
2021/03/14 01:09:41;;;;;;;28.13;19.42;;;256.00;1996.80;;;;;;5094584;28;20448;-73
2021/03/14 01:12:08;;;;;;;27.23;19.77;;;256.00;1996.80;;;;;;5093498;28;20039;-72
2021/03/14 01:14:34;;;;;;;25.58;17.63;;;256.10;1996.80;;;;;;5111114;28;20024;-73
2021/03/14 01:17:00;;;;;;;23.73;17.52;;;256.10;1996.80;;;;;;5077647;28;20017;-73
2021/03/14 01:19:25;;;;;;;24.67;17.33;;;256.10;1971.20;;;;;;5073619;28;20051;-73
2021/03/14 01:21:51;;;;;;;27.50;17.65;;;256.10;1971.20;;;;;;5087544;28;20035;-73
2021/03/14 01:24:17;;;;;;;26.23;17.25;;;256.20;1971.20;;;;;;5093413;28;20039;-73
2021/03/14 01:26:43;;;;;;;28.40;17.80;;;256.20;1971.20;;;;;;5093741;28;20027;-73
2021/03/14 01:29:08;;;;;;;27.27;18.38;;;256.20;1945.60;;;;;;5093652;28;20123;-72
2021/03/14 01:31:34;;;;;;;27.75;17.52;;;256.10;1945.60;;;;;;5094817;28;20020;-73
2021/03/14 01:34:00;;;;;;;23.95;16.85;;;256.10;1971.20;;;;;;5094919;28;20024;-72
2021/03/14 01:36:25;;;;;;;22.23;15.57;;;256.10;1971.20;;;;;;5095238;28;20070;-73
2021/03/14 01:38:51;;;;;;;23.95;15.93;;;256.10;1945.60;;;;;;5094793;28;20480;-73
2021/03/14 01:41:17;;;;;;;25.85;16.88;;;256.10;1945.60;;;;;;5094556;28;20503;-73
2021/03/14 01:43:43;;;;;;;22.45;14.90;;;256.10;1945.60;;;;;;5093636;28;20024;-73
2021/03/14 01:46:09;;;;;;;20.33;13.85;;;256.10;1945.60;;;;;;5094287;28;20429;-73
2021/03/14 01:48:36;;;;;;;23.23;16.10;;;256.10;1945.60;;;;;;5094531;28;20017;-73
2021/03/14 01:51:03;;;;;;;21.38;15.75;;;256.10;1945.60;;;;;;5080401;28;20399;-73
2021/03/14 01:53:31;;;;;;;22.67;16.17;;;256.10;1945.60;;;;;;5072807;28;20020;-73
2021/03/14 01:55:57;;;;;;;27.48;17.80;;;256.00;1945.60;;;;;;5071451;28;20055;-73
2021/03/14 01:58:23;;;;;;;23.77;17.92;;;256.10;1945.60;;;;;;5073995;28;20028;-73
2021/03/14 02:00:53;;;;;;;27.25;19.15;;;256.00;1945.60;;;;;;5071728;28;20020;-73
2021/03/14 02:03:23;;;;;;;27.30;17.70;;;256.00;1945.60;;;;;;5073894;28;20104;-73
2021/03/14 02:05:50;;;;;;;23.38;15.45;;;256.10;1945.60;;;;;;5073538;28;20035;-73
2021/03/14 02:08:17;;;;;;;21.92;15.98;;;256.10;1945.60;;;;;;5072316;28;20044;-73
2021/03/14 02:10:44;;;;;;;20.50;16.52;;;256.10;1945.60;;;;;;5072660;28;20022;-73
2021/03/14 02:13:16;;;;;;;24.00;15.68;;;256.10;1945.60;;;;;;5073959;28;20043;-73
2021/03/14 02:15:46;;;;;;;24.23;15.98;;;256.10;1945.60;;;;;;5073969;28;20066;-73
2021/03/14 02:18:14;;;;;;;;;;;256.10;1945.60;;;;;;5072537;28;20036;-73
2021/03/14 02:20:41;;;;;;;23.23;15.93;;;256.00;1971.20;;;;;;5073832;28;19905;-73
2021/03/14 02:23:13;;;;;;;22.98;15.20;;;256.00;1971.20;;;;;;5073847;28;20052;-73
2021/03/14 02:25:49;;;;;;;23.48;15.57;;;256.00;1971.20;;;;;;5071735;28;20052;-73
2021/03/14 02:28:15;;;;;;;21.05;15.05;;;256.00;1971.20;;;;;;5073300;28;20036;-73
2021/03/14 02:30:43;;;;;;;23.48;14.10;;;256.00;1971.20;;;;;;5073690;28;20020;-73
2021/03/14 02:33:13;;;;;;;22.73;13.82;;;256.10;1971.20;;;;;;5071173;28;20042;-73
2021/03/14 02:35:40;;;;;;;17.58;12.38;;;256.10;1945.60;;;;;;5073592;28;20035;-73
2021/03/14 02:38:07;;;;;;;18.52;13.15;;;256.10;1945.60;;;;;;5073364;28;20036;-73
2021/03/14 02:40:34;;;;;;;17.58;12.82;;;256.30;1945.60;;;;;;5072183;28;20434;-73
2021/03/14 02:43:03;;;;;;;18.05;14.27;;;256.30;1945.60;;;;;;5073315;28;20074;-73
2021/03/14 02:45:29;;;;;;;16.45;10.82;;;256.30;1945.60;;;;;;5071965;28;20025;-73
2021/03/14 02:47:56;;;;;;;17.98;11.52;;;256.40;1920.00;;;;;;5073427;28;20017;-73
2021/03/14 02:50:23;;;;;;;17.80;11.00;;;256.40;1945.60;;;;;;5073019;28;20109;-73
2021/03/14 02:52:50;;;;;;;17.23;10.73;;;256.40;1945.60;;;;;;5073063;28;20037;-73
2021/03/14 02:55:21;;;;;;;21.40;11.32;;;256.40;1920.00;;;;;;5072779;28;20082;-73
2021/03/14 02:57:48;;;;;;;17.85;11.98;;;256.50;1920.00;;;;;;5071702;28;20082;-73
2021/03/14 03:00:19;;;;;;;19.02;12.30;;;256.60;1920.00;;;;;;5072582;28;20028;-73
2021/03/14 03:02:46;;;;;;;15.60;10.80;;;256.60;1920.00;;;;;;5073111;28;20406;-73
2021/03/14 03:05:15;;;;;;;17.50;11.02;;;256.60;1920.00;;;;;;5071787;28;20036;-73
2021/03/14 03:07:44;;;;;;;15.50;11.45;;;256.70;1920.00;;;;;;5073169;28;20444;-73
2021/03/14 03:10:11;;;;;;;17.98;11.70;;;256.60;1920.00;;;;;;5073142;28;20025;-73
2021/03/14 03:12:37;;;;;;;21.15;12.27;;;256.70;1945.60;;;;;;5071347;28;20032;-73
2021/03/14 03:15:03;;;;;;;16.90;11.90;;;256.50;1945.60;;;;;;5072971;28;20025;-73
2021/03/14 03:17:29;;;;;;;20.35;12.32;;;256.60;1920.00;;;;;;5071671;28;20540;-73
2021/03/14 03:19:56;;;;;;;20.33;12.32;;;256.60;1945.60;;;;;;5071549;28;20123;-72
2021/03/14 03:22:22;;;;;;;25.58;13.73;;;256.50;1945.60;;;;;;5071521;28;20393;-72
2021/03/14 03:24:51;;;;;;;20.48;13.88;;;256.50;1945.60;;;;;;5072771;28;20099;-72
2021/03/14 03:27:17;;;;;;;22.50;13.63;;;256.50;1945.60;;;;;;5071545;28;20017;-73
2021/03/14 03:29:43;;;;;;;20.05;13.18;;;256.50;1945.60;;;;;;5071810;28;20032;-73
2021/03/14 03:32:09;;;;;;;22.80;13.60;;;256.50;1945.60;;;;;;5072813;28;20384;-72
2021/03/14 03:34:35;;;;;;;24.88;12.93;;;256.50;1945.60;;;;;;5072960;28;20025;-73
2021/03/14 03:37:01;;;;;;;20.23;12.73;;;256.50;1945.60;;;;;;5072918;28;20099;-73
2021/03/14 03:39:26;;;;;;;18.50;11.55;;;256.50;1945.60;;;;;;5072925;28;20036;-73
2021/03/14 03:42:09;;;;;;;20.30;12.68;;;256.50;1945.60;;;;;;5073053;28;20025;-73
2021/03/14 03:44:38;;;;;;;18.85;12.60;;;256.50;1945.60;;;;;;5071680;28;20020;-73
2021/03/14 03:47:06;;;;;;;18.45;11.77;;;256.60;1945.60;;;;;;5071139;28;20045;-73
2021/03/14 03:49:33;;;;;;;19.15;13.07;;;256.60;1945.60;;;;;;5072943;28;20032;-73
2021/03/14 03:52:00;;;;;;;20.30;11.73;;;256.60;1945.60;;;;;;5072668;28;20052;-73
2021/03/14 03:54:29;;;;;;;16.25;11.77;;;256.60;1945.60;;;;;;5072716;28;20033;-73
2021/03/14 03:56:56;;;;;;;20.90;11.10;;;256.70;1945.60;;;;;;5071559;28;20032;-73
2021/03/14 03:59:23;;;;;;;17.10;11.52;;;256.70;1945.60;;;;;;5072410;28;20029;-73
2021/03/14 04:01:50;;;;;;;21.90;13.07;;;256.70;1920.00;;;;;;5071278;28;20114;-73
2021/03/14 04:04:17;;;;;;;16.63;11.60;;;256.80;1920.00;;;;;;5072451;28;20106;-73
2021/03/14 04:06:42;;;;;;;19.23;12.13;;;256.80;1945.60;;;;;;5072479;28;20489;-73
2021/03/14 04:09:09;;;;;;;20.55;12.25;;;256.80;1920.00;;;;;;5072468;28;20031;-73
2021/03/14 04:11:39;;;;;;;20.40;11.90;;;256.80;1920.00;;;;;;5070742;28;20036;-73
2021/03/14 04:14:06;;;;;;;19.27;11.73;;;256.90;1920.00;;;;;;5072391;28;20043;-73
2021/03/14 04:16:32;;;;;;;19.88;12.18;;;256.80;1920.00;;;;;;5071170;28;20420;-73
2021/03/14 04:18:59;;;;;;;21.33;13.73;;;256.80;1894.40;;;;;;5071173;28;20055;-73
2021/03/14 04:21:26;;;;;;;20.42;13.98;;;256.80;1920.00;;;;;;5072421;28;20028;-73
2021/03/14 04:23:53;;;;;;;19.00;13.10;;;256.90;1920.00;;;;;;5073003;28;20503;-72
2021/03/14 04:26:22;;;;;;;19.17;14.02;;;256.90;1894.40;;;;;;5075726;28;20021;-73
2021/03/14 04:28:51;;;;;;;17.70;13.00;;;256.90;1894.40;;;;;;5075515;28;20468;-73
2021/03/14 04:31:18;;;;;;;18.83;13.93;;;256.90;1894.40;;;;;;5074345;28;20028;-73
2021/03/14 04:33:45;;;;;;;20.17;14.30;;;256.90;1894.40;;;;;;5075582;28;20017;-72
2021/03/14 04:36:12;;;;;;;17.60;13.50;;;281.60;1920.00;;;;;;5074768;28;20031;-73
2021/03/14 04:38:40;;;;;;;20.50;14.27;;;256.90;1920.00;;;;;;5075019;28;20532;-73
2021/03/14 04:41:06;;;;;;;17.40;13.23;;;281.60;1920.00;;;;;;5075555;28;20465;-73
2021/03/14 04:43:32;;;;;;;19.98;14.07;;;256.90;1894.40;;;;;;5075467;28;20028;-72
2021/03/14 04:45:59;;;;;;;19.42;13.77;;;256.90;1894.40;;;;;;5075752;28;20027;-72
2021/03/14 04:48:25;;;;;;;19.60;13.75;;;256.90;1894.40;;;;;;5075365;28;20115;-72
2021/03/14 04:50:53;;;;;;;17.27;12.43;;;256.80;1894.40;;;;;;5075180;28;20016;-73
2021/03/14 04:53:25;;;;;;;17.48;12.73;;;256.90;1894.40;;;;;;5073120;28;20071;-72
2021/03/14 04:55:53;;;;;;;17.05;11.30;;;256.90;1894.40;;;;;;5073850;28;20054;-73
2021/03/14 04:58:22;;;;;;;22.33;12.55;;;281.60;1920.00;;;;;;5072965;28;20138;-73
2021/03/14 05:00:49;;;;;;;17.65;11.30;;;281.60;1894.40;;;;;;5074242;28;20033;-73
2021/03/14 05:03:17;;;;;;;16.48;11.38;;;256.90;1868.80;;;;;;5074821;28;20062;-73
2021/03/14 05:05:45;;;;;;;14.63;10.63;;;256.90;1868.80;;;;;;5072836;28;20063;-73
2021/03/14 05:08:12;;;;;;;18.90;9.85;;;256.90;1868.80;;;;;;5074050;28;20029;-73
2021/03/14 05:10:39;;;;;;;19.08;11.55;;;281.60;1894.40;;;;;;5072943;28;20781;-73
2021/03/14 05:13:06;;;;;;;13.93;9.52;;;281.60;1894.40;;;;;;5074527;28;20032;-73
2021/03/14 05:15:32;;;;;;;13.98;10.57;;;281.60;1894.40;;;;;;5072944;28;20102;-73
2021/03/14 05:17:59;;;;;;;13.07;9.23;;;281.60;1894.40;;;;;;5072505;28;20021;-72
2021/03/14 05:20:27;;;;;;;15.30;10.07;;;281.70;1868.80;;;;;;5073444;28;20021;-73
2021/03/14 05:22:55;;;;;;;15.30;9.57;;;281.60;1894.40;;;;;;5073524;28;20028;-73
2021/03/14 05:25:21;;;;;;;17.00;11.45;;;281.70;1894.40;;;;;;5074799;28;20016;-73
2021/03/14 05:27:53;;;;;;;16.40;10.32;;;281.70;1894.40;;;;;;5073758;28;20107;-73
2021/03/14 05:30:27;;;;;;;16.48;10.98;;;281.70;1894.40;;;;;;5074708;28;20013;-73
2021/03/14 05:32:54;;;;;;;16.45;9.38;;;281.70;1868.80;;;;;;5074622;28;20056;-73
2021/03/14 05:35:22;;;;;;;13.55;9.88;;;281.70;1894.40;;;;;;5074551;28;20024;-73
2021/03/14 05:37:48;;;;;;;14.55;10.23;;;281.70;1894.40;;;;;;5074644;28;20056;-73
2021/03/14 05:40:15;;;;;;;15.70;10.25;;;281.70;1894.40;;;;;;5073308;28;20030;-73
2021/03/14 05:42:41;;;;;;;24.25;13.15;;;281.80;1894.40;;;;;;5074480;28;20021;-73
2021/03/14 05:45:09;;;;;;;20.88;11.23;;;281.80;1894.40;;;;;;5074575;28;20119;-73
2021/03/14 05:47:36;;;;;;;18.33;12.35;;;281.80;1894.40;;;;;;5074532;28;20376;-73
2021/03/14 05:50:04;;;;;;;16.15;10.40;;;281.80;1894.40;;;;;;5073101;28;20066;-73
2021/03/14 05:52:31;;;;;;;16.77;9.85;;;281.70;1894.40;;;;;;5074299;28;20152;-73
2021/03/14 05:54:57;;;;;;;14.85;10.35;;;281.80;1894.40;;;;;;5071870;28;20364;-73
2021/03/14 05:57:23;;;;;;;13.43;9.23;;;281.80;1894.40;;;;;;5072952;28;20383;-73
2021/03/14 05:59:52;;;;;;;14.90;8.32;;;281.80;1894.40;;;;;;5074183;28;20025;-73
2021/03/14 06:02:19;;;;;;;13.85;7.93;;;281.80;1894.40;;;;;;5074028;28;20074;-73
2021/03/14 06:04:53;;;;;;;15.63;8.50;;;281.80;1894.40;;;;;;5072709;28;20086;-73
2021/03/14 06:07:19;;;;;;;14.07;8.35;;;281.80;1894.40;;;;;;5072753;28;20055;-73
2021/03/14 06:09:45;;;;;;;12.25;7.32;;;281.90;1894.40;;;;;;5072744;28;20108;-73
2021/03/14 06:12:12;;;;;;;11.90;7.18;;;281.90;1894.40;;;;;;5072670;28;20444;-73
2021/03/14 06:14:38;;;;;;;12.18;7.75;;;281.90;1894.40;;;;;;5072858;28;20036;-73
2021/03/14 06:17:04;;;;;;;13.68;8.32;;;281.90;1894.40;;;;;;5073786;28;20024;-73
2021/03/14 06:19:30;;;;;;;14.10;9.02;;;281.90;1868.80;;;;;;5073481;28;20025;-72
2021/03/14 06:22:29;;;;;;;14.10;8.45;;;282.00;1868.80;;;;;;5073095;28;20025;-72
2021/03/14 06:24:55;;;;;;;15.30;8.45;;;282.00;1868.80;;;;;;5040069;28;20150;-72
2021/03/14 06:27:37;;;;;;;15.00;7.68;;;282.10;1868.80;;;;;;5072040;28;20058;-72
2021/03/14 06:30:06;;;;;;;15.35;9.43;;;282.10;1894.40;;;;;;5091477;28;20028;-72
2021/03/14 06:32:32;;;;;;;12.70;7.82;;;282.00;1894.40;;;;;;5093737;28;20024;-74
2021/03/14 06:35:16;;;;;;;13.93;8.48;;;282.10;1894.40;;;;;;5092468;28;20480;-73
2021/03/14 06:37:43;;;;;;;17.42;9.10;;;282.10;1894.40;;;;;;5092403;28;20056;-73
2021/03/14 06:40:16;;;;;;;12.25;8.20;;;282.10;1894.40;;;;;;5075584;28;20031;-73
2021/03/14 06:42:42;;;;;;;16.98;9.60;;;282.20;1894.40;;;;;;5093652;28;20016;-73
2021/03/14 06:45:14;;;;;;;14.98;9.38;;;282.20;1894.40;;;;;;5093770;28;20016;-73
2021/03/14 06:47:48;;;;;;;14.55;8.07;;;282.20;1894.40;;;;;;5091387;28;20448;-73
2021/03/14 06:50:29;;;;;;;15.23;8.57;;;282.20;1894.40;;;;;;5084864;28;20471;-73
2021/03/14 06:53:11;;;;;;;14.00;8.60;;;282.20;1894.40;;;;;;5088914;28;20033;-74
2021/03/14 06:55:41;;;;;;;14.88;9.73;;;282.20;1894.40;;;;;;5078044;28;20487;-72
2021/03/14 06:58:23;;;;;;;16.42;9.15;;;282.20;1920.00;;;;;;5093514;28;20024;-73
2021/03/14 07:01:11;;;;;;;22.10;13.93;;;282.20;1920.00;;;;;;5092312;28;20074;-79
2021/03/14 07:03:39;;;;;;;40.58;24.90;;;282.30;1920.00;;;;;;5092087;28;20047;-72
2021/03/14 07:06:24;;;;;;;38.55;19.90;;;282.30;1920.00;;;;;;5092154;28;20051;-73
2021/03/14 07:08:57;;;;;;;24.00;15.73;;;282.40;1945.60;;;;;;5092007;28;20035;-72
2021/03/14 07:11:52;;;;;;;24.83;16.13;;;282.40;1971.20;;;;;;5091487;28;20028;-73
2021/03/14 07:14:20;;;;;;;24.40;15.68;;;282.40;1996.80;;;;;;5080017;28;20039;-72
2021/03/14 07:16:57;;;;;;;35.58;19.65;;;282.40;1996.80;;;;;;5092268;28;20224;-76
2021/03/14 07:19:27;;;;;;;31.70;18.50;;;282.50;1996.80;;;;;;5091967;28;20118;-73
2021/03/14 07:22:03;;;;;;;47.00;25.55;;;307.20;2048.00;;;;;;5093262;28;20389;-73
2021/03/14 07:24:33;;;;;;;79.85;44.53;;;307.30;2022.40;;;;;;5091586;28;20068;-73
2021/03/14 07:27:01;;;;;;;65.35;35.63;;;307.40;1996.80;;;;;;5092697;28;20101;-73
2021/03/14 07:29:28;;;;;;;55.22;31.10;;;307.50;1971.20;;;;;;5093093;28;20035;-74
2021/03/14 07:31:55;;;;;;;75.45;43.88;;;307.60;1971.20;;;;;;5093544;28;20494;-75
2021/03/14 07:34:21;;;;;;;118.63;61.08;;;307.70;1945.60;;;;;;5093088;28;20032;-73
2021/03/14 07:36:48;;;;;;;83.43;48.70;;;307.80;1945.60;;;;;;5092652;28;20476;-73
2021/03/14 07:39:14;;;;;;;129.40;72.05;;;308.00;1894.40;;;;;;5093062;28;20039;-73
2021/03/14 07:41:42;;;;;;;48.28;25.27;;;308.10;1920.00;;;;;;5091069;28;20097;-72
2021/03/14 07:44:08;;;;;;;17.92;11.32;;;332.80;1945.60;;;;;;5092823;28;20044;-72
2021/03/14 07:46:34;;;;;;;12.07;9.50;;;332.90;1945.60;;;;;;5093283;28;20356;-74
2021/03/14 07:49:02;;;;;;;7.68;6.50;;;333.00;1971.20;;;;;;5092777;28;20062;-73
2021/03/14 07:51:31;;;;;;;9.45;4.85;;;333.10;1945.60;;;;;;5091708;28;20118;-73
2021/03/14 07:54:06;;;;;;;4.15;3.25;;;333.10;1945.60;;;;;;5092394;28;20073;-72
2021/03/14 07:56:36;;;;;;;7.18;3.67;;;333.20;1894.40;;;;;;5090762;28;20049;-73
2021/03/14 07:59:02;;;;;;;5.15;3.80;;;333.30;1920.00;;;;;;5092948;28;20051;-73
2021/03/14 08:01:34;;;;;;;9.18;7.50;;;333.30;1894.40;;;;;;5093732;28;20044;-73
2021/03/14 08:04:01;;;;;;;8.02;5.15;;;333.40;1894.40;;;;;;5094646;28;20043;-74
2021/03/14 08:06:45;;;;;;;18.10;12.57;;;333.50;1894.40;;;;;;5094644;28;20109;-73
2021/03/14 08:09:11;;;;;;;9.60;7.25;;;333.50;1868.80;;;;;;5094623;28;20027;-73
2021/03/14 08:11:37;;;;;;;10.43;7.43;;;333.60;1894.40;;;;;;5095041;28;20020;-73
2021/03/14 08:14:03;;;;;;;10.25;6.50;;;333.60;1894.40;;;;;;5095193;28;20506;-74
2021/03/14 08:16:29;;;;;;;13.95;7.15;;;333.70;1920.00;;;;;;5096668;28;20031;-75
2021/03/14 08:18:57;;;;;;;15.27;9.07;;;358.50;1868.80;;;;;;5096721;28;20658;-74
2021/03/14 08:21:28;;;;;;;10.32;7.82;;;358.50;1894.40;;;;;;5096331;28;20024;-73
2021/03/14 08:23:57;;;;;;;11.65;7.82;;;358.60;1868.80;;;;;;5096395;28;20023;-75
2021/03/14 08:26:30;;;;;;;12.23;8.10;;;358.70;1843.20;;;;;;5094449;28;20408;-75
2021/03/14 08:28:59;;;;;;;12.27;8.55;;;358.70;1817.60;;;;;;5094645;28;20032;-75
2021/03/14 08:31:43;;;;;;;13.13;7.75;;;358.80;1843.20;;;;;;5094356;28;20077;-76
2021/03/14 08:34:19;;;;;;;12.38;7.95;;;358.80;1843.20;;;;;;5090187;28;20027;-75
2021/03/14 08:36:45;;;;;;;19.88;11.48;;;358.80;1843.20;;;;;;5091434;28;20079;-75
2021/03/14 08:39:29;;;;;;;15.02;10.57;;;358.90;1843.20;;;;;;5095157;28;20425;-75
2021/03/14 08:42:02;;;;;;;10.48;8.23;;;358.90;1843.20;;;;;;5090913;28;20024;-75
2021/03/14 08:44:40;;;;;;;12.65;9.98;;;358.80;1868.80;;;;;;5094932;28;20100;-75
2021/03/14 08:47:08;;;;;;;12.93;8.27;;;358.70;1843.20;;;;;;5086945;28;20012;-74
2021/03/14 08:49:36;;;;;;;18.10;10.70;;;358.70;1868.80;;;;;;5094503;28;20032;-76
2021/03/14 08:52:03;;;;;;;13.93;9.27;;;358.70;1868.80;;;;;;5095882;28;20107;-76
2021/03/14 08:54:37;;;;;;;17.08;11.25;;;358.70;1868.80;;;;;;5095701;28;20023;-74
2021/03/14 08:57:06;;;;;;;19.88;14.45;;;358.70;1894.40;;;;;;5094324;28;20032;-75
2021/03/14 08:59:32;;;;;;;22.25;14.75;;;358.70;1945.60;;;;;;5095138;28;20035;-73
2021/03/14 09:02:03;;;;;;;29.92;18.52;;;358.70;1945.60;;;;;;5093745;28;20016;-72
2021/03/14 09:04:33;;;;;;;34.95;19.90;;;358.70;1920.00;;;;;;5090726;28;20049;-73
2021/03/14 09:07:09;;;;;;;33.13;20.17;;;358.70;1920.00;;;;;;5092489;28;20043;-73
2021/03/14 09:09:36;;;;;;;45.50;27.23;;;358.70;1894.40;;;;;;5093258;28;20062;-73
2021/03/14 09:12:08;;;;;;;40.85;25.17;;;358.70;1894.40;;;;;;5094411;28;20104;-73
2021/03/14 09:14:38;;;;;;;29.63;15.82;;;358.70;1894.40;;;;;;5093098;28;20403;-73
2021/03/14 09:17:13;;;;;;;17.38;10.80;;;358.70;1894.40;;;;;;5092726;28;20016;-73
2021/03/14 09:19:50;;;;;;;15.75;11.98;;;358.70;1894.40;;;;;;5094041;28;20069;-73
2021/03/14 09:22:23;;;;;;;17.30;13.15;;;358.70;1894.40;;;;;;5093812;28;20016;-73
2021/03/14 09:25:09;;;;;;;16.95;10.38;;;358.80;1894.40;;;;;;5089073;28;20008;-73
2021/03/14 09:27:37;;;;;;;19.45;11.35;;;358.80;1894.40;;;;;;5093206;28;20492;-73
2021/03/14 09:30:15;;;;;;;18.92;10.85;;;358.90;1920.00;;;;;;5094561;28;20031;-73
2021/03/14 09:32:46;;;;;;;23.23;14.57;;;358.90;1894.40;;;;;;5094198;28;20040;-73
2021/03/14 09:35:25;;;;;;;28.85;16.13;;;358.90;1868.80;;;;;;5094364;28;20031;-72
2021/03/14 09:37:55;;;;;;;23.83;15.68;;;359.00;1894.40;;;;;;5093149;28;20035;-73
2021/03/14 09:40:27;;;;;;;25.40;15.13;;;359.00;1868.80;;;;;;5094370;28;20074;-72
2021/03/14 09:43:06;;;;;;;22.63;12.77;;;359.00;1868.80;;;;;;5093527;28;20054;-73
2021/03/14 09:45:32;;;;;;;17.85;11.30;;;359.00;1868.80;;;;;;5094780;28;20020;-73
2021/03/14 09:48:05;;;;;;;20.63;9.50;;;359.00;1868.80;;;;;;5093466;28;20023;-74
2021/03/14 09:50:37;;;;;;;15.88;10.18;;;359.00;1843.20;;;;;;5094663;28;20020;-73
2021/03/14 09:53:05;;;;;;;16.42;9.07;;;359.00;1868.80;;;;;;5094561;28;20027;-73
2021/03/14 09:55:38;;;;;;;16.98;11.20;;;359.00;1868.80;;;;;;5094338;28;20027;-73
2021/03/14 09:58:09;;;;;;;26.52;14.63;;;359.00;1817.60;;;;;;5073962;28;20086;-73
2021/03/14 10:00:34;;;;;;;27.88;13.98;;;359.10;1843.20;;;;;;5074155;28;20138;-73
2021/03/14 10:03:06;;;;;;;17.08;8.95;;;359.10;1868.80;;;;;;5074194;28;20032;-73
2021/03/14 10:05:43;;;;;;;10.27;6.95;;;359.20;1843.20;;;;;;5088766;28;20093;-73
2021/03/14 10:08:10;;;;;;;17.30;7.60;;;359.20;1868.80;;;;;;5088765;28;20032;-74
2021/03/14 10:10:39;;;;;;;20.02;9.60;;;359.30;1894.40;;;;;;5072529;28;20028;-73
2021/03/14 10:13:08;;;;;;;15.02;9.32;;;359.30;1843.20;;;;;;5089100;28;20096;-73
2021/03/14 10:15:36;;;;;;;20.40;15.60;;;359.30;1792.00;;;;;;5073998;28;20025;-73
2021/03/14 10:18:06;;;;;;;13.25;7.43;;;359.30;1817.60;;;;;;5073621;28;20024;-72
2021/03/14 10:20:33;;;;;;;13.40;9.48;;;359.30;1817.60;;;;;;5073235;28;20476;-73
2021/03/14 10:23:07;;;;;;;13.57;8.25;;;359.20;1792.00;;;;;;5071627;28;20032;-73
2021/03/14 10:25:38;;;;;;;14.88;9.38;;;359.20;1792.00;;;;;;5088997;28;20020;-73
2021/03/14 10:28:23;;;;;;;13.80;8.75;;;359.20;1817.60;;;;;;5073450;28;20095;-73
2021/03/14 10:30:59;;;;;;;13.40;8.68;;;359.20;1817.60;;;;;;5073409;28;20487;-73
2021/03/14 10:33:33;;;;;;;21.42;15.00;;;359.20;1792.00;;;;;;5072898;28;20032;-73
2021/03/14 10:36:00;;;;;;;16.92;11.38;;;359.30;1792.00;;;;;;5072818;28;20028;-73
2021/03/14 10:38:26;;;;;;;21.48;13.23;;;359.30;1792.00;;;;;;5073207;28;20023;-73
2021/03/14 10:41:10;;;;;;;16.52;11.05;;;359.30;1792.00;;;;;;5073011;28;20024;-73
2021/03/14 10:43:52;;;;;;;20.95;13.18;;;384.00;1792.00;;;;;;5073076;28;20020;-73
2021/03/14 10:46:39;;;;;;;21.10;13.70;;;384.00;1792.00;;;;;;5071344;28;20586;-73
2021/03/14 10:49:10;;;;;;;18.02;9.98;;;384.00;1766.40;;;;;;5073023;28;20032;-73
2021/03/14 10:51:37;;;;;;;27.02;15.10;;;384.00;1766.40;;;;;;5071481;28;20028;-73
2021/03/14 10:54:13;;;;;;;40.30;21.13;;;384.00;1792.00;;;;;;5072986;28;20016;-73
2021/03/14 10:56:50;;;;;;;24.92;15.23;;;384.00;1792.00;;;;;;5073003;28;20065;-73
2021/03/14 10:59:29;;;;;;;16.42;9.18;;;384.00;1792.00;;;;;;5073104;28;20031;-73
2021/03/14 11:02:16;;;;;;;30.55;16.42;;;384.00;1792.00;;;;;;5072886;28;20033;-72
2021/03/14 11:04:51;;;;;;;20.85;12.70;;;384.00;1817.60;;;;;;5072927;28;20031;-73
2021/03/14 11:07:34;;;;;;;28.27;14.25;;;384.10;1817.60;;;;;;5088321;28;20052;-73
2021/03/14 11:10:15;;;;;;;27.20;17.38;;;384.10;1817.60;;;;;;5071203;28;20036;-73
2021/03/14 11:12:43;;;;;;;18.88;11.02;;;384.10;1817.60;;;;;;5072567;28;20107;-73
2021/03/14 11:15:24;;;;;;;23.52;11.25;;;384.10;1817.60;;;;;;5069878;28;20060;-73
2021/03/14 11:17:51;;;;;;;17.63;10.15;;;384.10;1817.60;;;;;;5087247;28;20836;-73
2021/03/14 11:20:18;;;;;;;17.88;9.13;;;384.10;1817.60;;;;;;5088325;28;20028;-73
2021/03/14 11:22:47;;;;;;;17.42;9.63;;;384.10;1792.00;;;;;;5071348;28;20021;-73
2021/03/14 11:25:13;;;;;;;15.75;7.90;;;384.20;1792.00;;;;;;5072543;28;20507;-73
2021/03/14 11:27:39;;;;;;;16.42;7.65;;;384.20;1792.00;;;;;;5072711;28;20116;-73
2021/03/14 11:30:06;;;;;;;13.63;7.88;;;384.20;1766.40;;;;;;5072627;28;20066;-73
2021/03/14 11:32:31;;;;;;;19.33;7.70;;;384.30;1766.40;;;;;;5073131;28;20108;-73
2021/03/14 11:34:57;;;;;;;21.65;10.13;;;384.30;1766.40;;;;;;5076761;28;20528;-73
2021/03/14 11:37:23;;;;;;;19.33;8.02;;;384.30;1740.80;;;;;;5076792;28;20059;-73
2021/03/14 11:39:48;;;;;;;13.48;7.53;;;384.40;1740.80;;;;;;5076466;28;20069;-73
2021/03/14 11:42:14;;;;;;;14.18;7.28;;;384.40;1740.80;;;;;;5076573;28;20024;-75
2021/03/14 11:44:40;;;;;;;12.93;6.35;;;384.40;1740.80;;;;;;5084751;28;20035;-74
2021/03/14 11:47:06;;;;;;;14.02;7.82;;;384.40;1766.40;;;;;;5096521;28;20027;-75
2021/03/14 11:49:32;;;;;;;10.90;7.05;;;384.40;1766.40;;;;;;5096629;28;20553;-75
2021/03/14 11:51:57;;;;;;;23.38;10.77;;;384.40;1817.60;;;;;;5095884;28;20165;-75
2021/03/14 11:54:23;;;;;;;14.15;8.30;;;384.40;1817.60;;;;;;5093199;28;20384;-73
2021/03/14 11:56:50;;;;;;;20.92;10.43;;;384.30;1817.60;;;;;;5094596;28;20020;-73
2021/03/14 11:59:16;;;;;;;15.77;10.80;;;384.40;1843.20;;;;;;5096165;28;20540;-75
2021/03/14 12:01:43;;;;;;;32.28;17.90;;;384.30;1868.80;;;;;;5094602;28;20028;-73
2021/03/14 12:04:09;;;;;;;29.05;17.73;;;384.30;1894.40;;;;;;5096210;28;20034;-73
2021/03/14 12:06:35;;;;;;;25.30;14.93;;;384.30;1894.40;;;;;;5095559;28;20488;-74
2021/03/14 12:09:02;;;;;;;28.38;16.17;;;384.30;1894.40;;;;;;5095393;28;20020;-75
2021/03/14 12:11:28;;;;;;;36.33;18.52;;;384.20;1920.00;;;;;;5086972;28;20498;-73